createdAt,value
2022-08-26T00:06:30.576Z,1013.10
2022-08-26T00:21:33.470Z,1013.09
2022-08-26T00:36:35.817Z,1013.03
2022-08-26T00:51:37.187Z,1012.94
2022-08-26T01:06:39.592Z,1012.95
2022-08-26T01:21:40.601Z,1012.92
2022-08-26T01:36:42.823Z,1012.83
2022-08-26T01:51:49.409Z,1012.78
2022-08-26T02:06:50.630Z,1012.66
2022-08-26T02:21:51.969Z,1012.66
2022-08-26T02:36:53.071Z,1012.58
2022-08-26T02:51:54.350Z,1012.64
2022-08-26T03:06:55.652Z,1012.55
2022-08-26T03:21:58.316Z,1012.36
2022-08-26T03:36:59.329Z,1012.37
2022-08-26T03:52:00.074Z,1012.36
2022-08-26T04:07:02.072Z,1012.25
2022-08-26T04:22:02.401Z,1012.12
2022-08-26T04:37:03.928Z,1012.10
2022-08-26T04:52:06.909Z,1012.12
2022-08-26T05:07:10.259Z,1012.31
2022-08-26T05:22:13.134Z,1012.37
2022-08-26T05:37:14.623Z,1012.40
2022-08-26T05:52:17.809Z,1012.30
2022-08-26T06:07:21.481Z,1012.42
2022-08-26T06:22:23.481Z,1012.30
2022-08-26T06:37:25.734Z,1012.34
2022-08-26T06:52:27.070Z,1012.27
2022-08-26T07:07:29.423Z,1012.28
2022-08-26T07:22:30.323Z,1012.08
2022-08-26T07:37:35.464Z,1012.19
2022-08-26T07:52:37.546Z,1012.05
2022-08-26T08:07:45.376Z,1012.05
2022-08-26T08:22:46.156Z,1011.95
2022-08-26T08:37:48.204Z,1011.86
2022-08-26T08:52:49.305Z,1011.67
2022-08-26T09:07:49.429Z,1011.61
2022-08-26T09:22:51.519Z,1011.58
2022-08-26T09:52:54.457Z,1011.35
2022-08-26T10:07:56.417Z,1011.05
2022-08-26T10:22:56.976Z,1010.71
2022-08-26T10:37:58.815Z,1010.46
2022-08-26T10:53:00.292Z,1010.22
2022-08-26T11:08:02.628Z,1010.26
2022-08-26T11:23:04.878Z,1010.02
2022-08-26T11:38:06.715Z,1009.89
2022-08-26T11:53:07.654Z,1010.56
2022-08-26T12:08:09.698Z,1010.45
2022-08-26T12:23:10.302Z,1011.12
2022-08-26T12:38:11.619Z,1011.26
2022-08-26T12:53:12.952Z,1010.98
2022-08-26T13:08:13.046Z,1011.44
2022-08-26T13:23:14.222Z,1011.38
2022-08-26T13:38:29.023Z,1010.96
2022-08-26T13:53:20.841Z,1010.65
2022-08-26T14:08:21.438Z,1010.78
2022-08-26T14:23:23.220Z,1010.63
2022-08-26T14:38:24.007Z,1010.28
2022-08-26T14:53:25.170Z,1010.25
2022-08-26T15:08:26.062Z,1009.85
2022-08-26T15:23:26.802Z,1009.59
2022-08-26T15:38:28.949Z,1009.74
2022-08-26T15:53:30.672Z,1009.30
2022-08-26T16:08:32.837Z,1008.88
2022-08-26T16:23:38.284Z,1008.65
2022-08-26T16:38:39.626Z,1009.09
2022-08-26T16:53:41.315Z,1009.25
2022-08-26T17:08:42.040Z,1009.35
2022-08-26T17:23:43.233Z,1009.47
2022-08-26T17:38:44.335Z,1009.35
2022-08-26T17:53:45.512Z,1009.22
2022-08-26T18:08:48.122Z,1009.28
2022-08-26T18:23:49.479Z,1009.24
2022-08-26T18:38:50.408Z,1009.17
2022-08-26T18:53:52.445Z,1009.07
2022-08-26T19:08:54.654Z,1009.10
2022-08-26T19:23:58.487Z,1009.41
2022-08-26T19:39:00.448Z,1009.70
2022-08-26T19:54:01.812Z,1009.79
2022-08-26T20:09:02.196Z,1009.66
2022-08-26T20:24:04.325Z,1009.71
2022-08-26T20:39:05.481Z,1009.90
2022-08-26T20:54:06.228Z,1009.75
2022-08-26T21:09:08.104Z,1009.78
2022-08-26T21:24:09.308Z,1009.87
2022-08-26T21:39:12.087Z,1009.88
2022-08-26T21:54:13.265Z,1009.64
2022-08-26T22:09:13.836Z,1009.59
2022-08-26T22:24:13.978Z,1009.70
2022-08-26T22:39:15.354Z,1009.68
2022-08-26T22:54:18.070Z,1009.64
2022-08-26T23:09:19.137Z,1009.23
2022-08-26T23:24:20.559Z,1009.03
2022-08-26T23:39:20.914Z,1008.81
2022-08-26T23:54:23.590Z,1008.99
